Terminal Aerodrome Forecast
Issued by NWS

Home | Current Version | Previous Version | Text Only | Print | Product List | Glossary On
Versions: 1 2 3 4 5 6 7 8 9 10 11 12 13 14 15 16 17
000
FTUS43 KGRB 101124
TAFAUW
TAF
KAUW 101124Z 1012/1112 29008KT P6SM SCT027 BKN035
      TEMPO 1012/1016 -SN BKN028 BKN035
     FM101700 27005KT P6SM SCT045 SCT070
     FM110300 VRB03KT 6SM -SN OVC035
     FM110500 12002KT 3SM -SN OVC026
     FM110700 10005KT 2SM -SN OVC016=

USA.gov is the U.S. government's official web portal to all federal, state and local government web resources and services.